Santa Rita Park, California
Current Conditions -  °F | °C
As of 6:53 AM on Tuesday 21 Oct 2014 (Local Time) from KMCE Reporting Station
Clear Clear  
Wind Chill: 51°   Ceiling: Unl
Heat Index: 51°   Visibility: 10mi
Dew Point: 47°   Wind: 7mph
Humidity: 86%   Direction: 330°NNW
Pressure: 30.05"   Gusts: NA
Location:  37.05°N, 120.6°W
Report Text: KMCE 211353Z AUTO 33006KT 10SM CLR 11/08 A3005 RMK AO2 SLP174 T01060083
Loading
Personal Weather Stations






























Interactive Weather Map
Tropical Storm Tracking
New forecast layout! Learn more

10-Day Weather Forecast

Advertisements
Track Severe Weather on mobile